createdAt,value
2023-02-28T00:03:36.271Z,0.15
2023-02-28T00:08:41.616Z,0.13
2023-02-28T00:13:50.731Z,0.08
2023-02-28T00:18:56.846Z,-0.07
2023-02-28T00:24:01.695Z,-0.46
2023-02-28T00:29:09.545Z,-0.31
2023-02-28T00:34:15.266Z,-0.22
2023-02-28T00:39:20.362Z,-0.31
2023-02-28T00:44:28.066Z,-0.32
2023-02-28T00:49:33.004Z,-0.22
2023-02-28T00:54:39.887Z,-0.14
2023-02-28T00:59:48.874Z,-0.19
2023-02-28T01:04:53.856Z,-0.24
2023-02-28T01:09:59.255Z,-0.13
2023-02-28T01:15:07.773Z,-0.30
2023-02-28T01:20:14.614Z,-0.24
2023-02-28T01:25:20.157Z,-0.28
2023-02-28T01:30:30.542Z,-0.45
2023-02-28T01:35:36.444Z,-0.45
2023-02-28T01:40:41.476Z,-0.58
2023-02-28T01:45:49.193Z,-0.62
2023-02-28T01:50:54.175Z,-0.74
2023-02-28T01:55:59.393Z,-0.44
2023-02-28T02:01:07.330Z,-0.57
2023-02-28T02:06:12.300Z,-0.81
2023-02-28T02:11:21.671Z,-0.69
2023-02-28T02:16:49.668Z,-0.72
2023-02-28T02:22:15.439Z,-0.85
2023-02-28T02:27:47.981Z,-0.79
2023-02-28T02:33:20.822Z,-1.03
2023-02-28T02:38:36.855Z,-1.17
2023-02-28T02:43:48.850Z,-1.22
2023-02-28T02:48:56.963Z,-1.24
2023-02-28T02:54:09.871Z,-1.41
2023-02-28T02:59:22.735Z,-1.66
2023-02-28T03:04:31.714Z,-1.67
2023-02-28T03:09:40.069Z,-1.69
2023-02-28T03:14:59.610Z,-1.74
2023-02-28T03:20:11.879Z,-1.81
2023-02-28T03:25:24.719Z,-1.95
2023-02-28T03:30:37.604Z,-2.10
2023-02-28T03:35:47.224Z,-2.19
2023-02-28T03:41:01.138Z,-2.21
2023-02-28T03:46:12.252Z,-2.25
2023-02-28T03:51:22.776Z,-2.28
2023-02-28T03:56:35.251Z,-2.36
2023-02-28T04:01:42.569Z,-2.30
2023-02-28T04:06:50.249Z,-2.47
2023-02-28T04:11:59.609Z,-2.60
2023-02-28T04:17:04.684Z,-2.57
2023-02-28T04:22:09.734Z,-2.56
2023-02-28T04:27:17.366Z,-2.67
2023-02-28T04:32:22.589Z,-2.71
2023-02-28T04:37:29.898Z,-2.70
2023-02-28T04:42:42.674Z,-2.74
2023-02-28T04:47:47.900Z,-2.87
2023-02-28T04:52:52.783Z,-2.89
2023-02-28T04:58:00.351Z,-3.05
2023-02-28T05:03:05.584Z,-3.07
2023-02-28T05:08:21.237Z,-3.10
2023-02-28T05:13:28.856Z,-3.08
2023-02-28T05:18:33.785Z,-3.26
2023-02-28T05:23:38.756Z,-3.24
2023-02-28T05:28:46.206Z,-3.49
2023-02-28T05:33:52.266Z,-3.64
2023-02-28T05:38:59.577Z,-3.53
2023-02-28T05:44:07.363Z,-3.52
2023-02-28T05:49:15.232Z,-3.49
2023-02-28T05:54:23.700Z,-3.51
2023-02-28T05:59:31.228Z,-3.57
2023-02-28T06:04:36.440Z,-3.45
2023-02-28T06:09:42.042Z,-3.27
2023-02-28T06:14:49.634Z,-3.18
2023-02-28T06:19:56.168Z,-3.35
2023-02-28T06:25:03.559Z,-3.38
2023-02-28T06:30:13.486Z,-3.03
2023-02-28T06:35:18.629Z,-3.12
2023-02-28T06:40:24.494Z,-3.12
2023-02-28T06:45:34.260Z,-2.76
2023-02-28T06:50:40.513Z,-2.77
2023-02-28T06:55:45.926Z,-2.34
2023-02-28T07:00:55.342Z,-2.32
2023-02-28T07:06:04.118Z,-2.01
2023-02-28T07:11:09.337Z,-1.92
2023-02-28T07:16:23.201Z,-1.56
2023-02-28T07:21:29.397Z,-1.70
2023-02-28T07:26:35.946Z,-1.72
2023-02-28T07:31:43.553Z,-1.40
2023-02-28T07:36:54.519Z,-1.20
2023-02-28T07:42:00.759Z,-1.20
2023-02-28T07:47:08.608Z,-1.15
2023-02-28T07:52:15.706Z,-0.93
2023-02-28T07:57:22.682Z,-0.68
2023-02-28T08:02:30.298Z,-0.60
2023-02-28T08:07:35.348Z,-0.27
2023-02-28T08:12:40.485Z,-0.12
2023-02-28T08:17:48.218Z,0.08
2023-02-28T08:22:53.189Z,0.20
2023-02-28T08:27:58.069Z,0.19
2023-02-28T08:33:06.142Z,0.31
2023-02-28T08:38:11.049Z,0.26
2023-02-28T08:43:15.994Z,0.70
2023-02-28T08:48:23.734Z,1.09
2023-02-28T08:53:28.708Z,1.02
2023-02-28T08:58:33.888Z,1.11
2023-02-28T09:03:42.385Z,1.55
2023-02-28T09:08:47.842Z,1.80
2023-02-28T09:13:52.775Z,1.71
2023-02-28T09:19:01.921Z,1.84
2023-02-28T09:24:07.572Z,2.07
2023-02-28T09:29:13.173Z,2.06
2023-02-28T09:34:21.071Z,1.97
2023-02-28T09:39:27.931Z,3.28
2023-02-28T09:44:36.648Z,4.16
2023-02-28T09:49:47.387Z,3.97
2023-02-28T09:54:52.357Z,3.67
2023-02-28T10:00:14.076Z,4.72
2023-02-28T10:05:23.829Z,4.27
2023-02-28T10:10:34.593Z,2.72
2023-02-28T10:15:40.071Z,2.71
2023-02-28T10:20:51.543Z,2.04
2023-02-28T10:26:01.178Z,2.11
2023-02-28T10:31:07.126Z,2.16
2023-02-28T10:36:19.021Z,2.38
2023-02-28T10:41:37.231Z,1.89
2023-02-28T10:46:44.476Z,2.39
2023-02-28T10:51:56.071Z,2.14
2023-02-28T10:57:18.832Z,2.49
2023-02-28T11:02:44.041Z,2.48
2023-02-28T11:07:59.858Z,3.17
2023-02-28T11:13:07.480Z,3.57
2023-02-28T11:18:28.615Z,3.84
2023-02-28T11:23:41.084Z,3.67
2023-02-28T11:28:46.549Z,3.07
2023-02-28T11:33:53.242Z,3.55
2023-02-28T11:39:05.389Z,3.81
2023-02-28T11:44:26.249Z,3.36
2023-02-28T11:49:39.577Z,4.52
2023-02-28T11:55:07.804Z,4.18
2023-02-28T12:00:33.256Z,4.42
2023-02-28T12:05:47.223Z,4.11
2023-02-28T12:11:06.815Z,4.91
2023-02-28T12:16:56.341Z,5.21
2023-02-28T12:22:26.329Z,4.85
2023-02-28T12:27:38.386Z,4.72
2023-02-28T12:32:50.076Z,4.47
2023-02-28T12:38:01.581Z,4.68
2023-02-28T12:43:12.670Z,5.02
2023-02-28T12:48:22.033Z,5.14
2023-02-28T12:53:36.015Z,4.00
2023-02-28T12:58:47.523Z,4.39
2023-02-28T13:04:11.569Z,4.73
2023-02-28T13:09:18.415Z,4.80
2023-02-28T13:14:32.025Z,4.18
2023-02-28T13:19:48.756Z,4.37
2023-02-28T13:24:55.222Z,4.61
2023-02-28T13:30:03.944Z,5.41
2023-02-28T13:35:42.921Z,4.42
2023-02-28T13:40:48.601Z,4.41
2023-02-28T13:46:15.891Z,4.59
2023-02-28T13:51:48.923Z,4.52
2023-02-28T13:57:05.841Z,4.51
2023-02-28T14:02:42.896Z,4.76
2023-02-28T14:07:51.768Z,4.71
2023-02-28T14:13:15.138Z,5.07
2023-02-28T14:18:27.348Z,4.75
2023-02-28T14:24:13.816Z,4.81
2023-02-28T14:29:35.814Z,3.75
2023-02-28T14:34:50.535Z,4.02
2023-02-28T14:39:56.714Z,3.97
2023-02-28T14:45:01.957Z,3.59
2023-02-28T14:50:12.252Z,3.66
2023-02-28T14:55:21.933Z,4.01
2023-02-28T15:00:33.444Z,3.37
2023-02-28T15:05:44.867Z,3.58
2023-02-28T15:10:56.901Z,3.54
2023-02-28T15:16:23.898Z,3.30
2023-02-28T15:21:36.713Z,3.79
2023-02-28T15:26:45.196Z,3.54
2023-02-28T15:31:57.913Z,3.29
2023-02-28T15:37:31.116Z,3.05
2023-02-28T15:42:36.003Z,3.24
2023-02-28T15:47:41.200Z,3.40
2023-02-28T15:52:49.869Z,3.03
2023-02-28T15:57:59.744Z,2.99
2023-02-28T16:03:04.877Z,3.18
2023-02-28T16:08:19.251Z,2.87
2023-02-28T16:13:24.168Z,3.11
2023-02-28T16:18:31.606Z,2.95
2023-02-28T16:23:43.997Z,3.08
2023-02-28T16:28:49.282Z,3.25
2023-02-28T16:33:57.996Z,3.27
2023-02-28T16:39:07.178Z,3.26
2023-02-28T16:44:18.608Z,3.35
2023-02-28T16:49:23.743Z,3.13
2023-02-28T16:54:31.576Z,3.30
2023-02-28T16:59:36.850Z,3.33
2023-02-28T17:04:42.692Z,2.79
2023-02-28T17:09:50.470Z,2.81
2023-02-28T17:14:56.373Z,2.78
2023-02-28T17:20:05.624Z,2.63
2023-02-28T17:25:14.639Z,2.29
2023-02-28T17:30:22.845Z,2.24
2023-02-28T17:35:28.017Z,2.28
2023-02-28T17:40:37.361Z,2.24
2023-02-28T17:45:42.365Z,2.33
2023-02-28T17:50:47.277Z,1.86
2023-02-28T17:55:54.878Z,1.53
2023-02-28T18:01:00.420Z,1.53
2023-02-28T18:06:06.622Z,1.75
2023-02-28T18:11:22.168Z,1.33
2023-02-28T18:16:27.821Z,1.12
2023-02-28T18:21:33.135Z,0.88
2023-02-28T18:26:44.335Z,1.01
2023-02-28T18:31:49.500Z,1.10
2023-02-28T18:36:56.529Z,1.45
2023-02-28T18:42:04.392Z,1.23
2023-02-28T18:47:12.240Z,1.04
2023-02-28T18:52:17.461Z,0.78
2023-02-28T18:57:25.463Z,0.67
2023-02-28T19:02:32.953Z,0.30
2023-02-28T19:07:38.444Z,0.28
2023-02-28T19:12:47.189Z,0.13
2023-02-28T19:17:52.553Z,0.01
2023-02-28T19:22:58.316Z,0.08
2023-02-28T19:28:10.050Z,0.05
2023-02-28T19:33:15.496Z,-0.02
2023-02-28T19:38:21.467Z,0.04
2023-02-28T19:43:29.261Z,-0.08
2023-02-28T19:48:34.594Z,-0.24
2023-02-28T19:53:45.120Z,-0.30
2023-02-28T19:58:53.396Z,-0.47
2023-02-28T20:03:58.888Z,-0.59
2023-02-28T20:09:04.340Z,-0.45
2023-02-28T20:14:13.707Z,-0.67
2023-02-28T20:19:19.172Z,-0.55
2023-02-28T20:24:26.067Z,-0.62
2023-02-28T20:29:34.048Z,-0.55
2023-02-28T20:34:39.057Z,-0.78
2023-02-28T20:39:44.823Z,-0.88
2023-02-28T20:44:52.757Z,-0.97
2023-02-28T20:49:57.877Z,-1.22
2023-02-28T20:55:02.864Z,-1.04
2023-02-28T21:00:16.233Z,-1.05
2023-02-28T21:05:21.186Z,-0.99
2023-02-28T21:10:26.396Z,-0.99
2023-02-28T21:15:33.933Z,-1.18
2023-02-28T21:20:39.174Z,-1.02
2023-02-28T21:25:44.253Z,-1.40
2023-02-28T21:30:51.872Z,-1.26
2023-02-28T21:36:05.860Z,-1.31
2023-02-28T21:41:13.034Z,-1.24
2023-02-28T21:46:22.487Z,-1.44
2023-02-28T21:51:30.541Z,-1.50
2023-02-28T21:56:40.314Z,-1.46
2023-02-28T22:01:48.899Z,-1.39
2023-02-28T22:06:56.248Z,-1.40
2023-02-28T22:12:01.689Z,-1.75
2023-02-28T22:17:09.271Z,-1.81
2023-02-28T22:22:14.170Z,-1.85
2023-02-28T22:27:19.106Z,-1.78
2023-02-28T22:32:27.089Z,-1.93
2023-02-28T22:37:32.164Z,-1.99
2023-02-28T22:42:37.295Z,-2.19
2023-02-28T22:47:44.760Z,-2.11
2023-02-28T22:52:49.729Z,-2.32
2023-02-28T22:57:55.215Z,-2.29
2023-02-28T23:03:02.909Z,-2.19
2023-02-28T23:08:08.193Z,-2.19
2023-02-28T23:13:13.054Z,-2.13
2023-02-28T23:18:20.861Z,-2.31
2023-02-28T23:23:25.834Z,-2.39
2023-02-28T23:28:31.404Z,-2.24
2023-02-28T23:33:39.184Z,-2.43
2023-02-28T23:38:45.335Z,-2.31
2023-02-28T23:43:50.848Z,-2.44
2023-02-28T23:48:58.810Z,-2.60
2023-02-28T23:54:05.034Z,-2.58
2023-02-28T23:59:10.450Z,-2.74
